Terminal Aerodrome Forecast
Issued by NWS Grand Junction, CO

Home | Current Version | Previous Version | Text Only | Print | Product List | Glossary On
Versions: 1 2 3 4 5 6 7 8 9 10 11 12 13 14 15 16 17 18 19 20 21 22 23 24 25 26 27 28 29 30
798
FTUS45 KGJT 031729
TAFGJT
TAF
KGJT 031729Z 0318/0418 VRB04KT P6SM SKC
     FM032000 29005KT P6SM FEW100
     FM040200 05005KT P6SM SKC
     FM040600 11008KT P6SM SKC=

USA.gov is the U.S. government's official web portal to all federal, state and local government web resources and services.